Terminal Aerodrome Forecast
Issued by NWS

Home | Current Version | Previous Version | Text Only | Print | Product List | Glossary On
Versions: 1 2 3 4 5 6 7 8 9 10 11 12 13 14 15 16 17 18 19 20 21 22
000
FTUS46 KLOX 221300 AAA
TAFOXR
TAF AMD
KOXR 221344Z 2214/2312 00000KT P6SM BKN010
     FM221500 VRB03KT P6SM SCT010
     FM221700 26008KT P6SM SKC
     FM222000 27015KT P6SM SKC
     FM230300 29010KT P6SM SKC
     FM230700 VRB03KT P6SM SKC=

USA.gov is the U.S. government's official web portal to all federal, state and local government web resources and services.